Time;durP1;ratioP1;P1;durP2;ratioP2;P2;SDS_P1;SDS_P2;PMS_P1;PMS_P2;Temp;Humidity;BMP_temperature;BMP_pressure;BME280_temperature;BME280_humidity;BME280_pressure;Samples;Min_cycle;Max_cycle;Signal;HPM_P1;HPM_P2
2023/04/18 00:01:06;;;;;;;16.27;15.10;;;9.10;99.90;;;;;;5135383;27;20605;-69
2023/04/18 00:03:35;;;;;;;17.27;16.03;;;9.10;99.90;;;;;;5135319;27;20577;-68
2023/04/18 00:06:02;;;;;;;15.83;15.13;;;9.10;99.90;;;;;;5145045;27;20578;-68
2023/04/18 00:08:30;;;;;;;14.43;13.83;;;9.10;99.90;;;;;;5146308;27;20459;-68
2023/04/18 00:10:58;;;;;;;14.10;13.50;;;9.00;99.90;;;;;;5142202;27;20470;-68
2023/04/18 00:13:27;;;;;;;14.80;14.17;;;9.00;99.90;;;;;;5145833;27;20451;-67
2023/04/18 00:15:54;;;;;;;15.20;14.07;;;9.00;99.90;;;;;;5142609;27;20492;-66
2023/04/18 00:18:20;;;;;;;14.30;13.70;;;9.10;99.90;;;;;;5133893;27;21022;-66
2023/04/18 00:20:47;;;;;;;12.90;12.40;;;9.10;99.90;;;;;;5130802;27;20826;-67
2023/04/18 00:23:15;;;;;;;13.63;13.03;;;9.20;99.90;;;;;;5141471;27;20478;-67
2023/04/18 00:25:43;;;;;;;14.60;13.90;;;9.20;99.90;;;;;;5141932;27;20456;-68
2023/04/18 00:28:10;;;;;;;17.93;16.47;;;9.20;99.90;;;;;;5144515;27;20473;-67
2023/04/18 00:30:37;;;;;;;15.07;14.37;;;9.20;99.90;;;;;;5135291;27;20486;-66
2023/04/18 00:33:03;;;;;;;15.23;14.33;;;9.20;99.90;;;;;;5141119;27;20511;-68
2023/04/18 00:35:30;;;;;;;15.03;14.33;;;9.10;99.90;;;;;;5142151;27;20772;-67
2023/04/18 00:37:57;;;;;;;15.57;14.80;;;9.10;99.90;;;;;;5138014;27;21029;-66
2023/04/18 00:40:24;;;;;;;14.60;13.80;;;9.00;99.90;;;;;;5147255;27;20459;-67
2023/04/18 00:42:53;;;;;;;14.47;13.87;;;8.90;99.90;;;;;;5148159;27;20475;-67
2023/04/18 00:45:20;;;;;;;14.73;14.03;;;8.80;99.90;;;;;;5146309;27;20482;-66
2023/04/18 00:47:46;;;;;;;15.20;14.50;;;8.80;99.90;;;;;;5135907;27;20463;-66
2023/04/18 00:50:14;;;;;;;14.53;13.50;;;8.70;99.90;;;;;;5149887;27;21528;-66
2023/04/18 00:52:42;;;;;;;14.97;14.17;;;8.60;99.90;;;;;;5146701;27;20511;-67
2023/04/18 00:55:09;;;;;;;15.07;14.17;;;8.50;99.90;;;;;;5135482;27;20510;-66
2023/04/18 00:57:38;;;;;;;14.70;13.70;;;8.50;99.90;;;;;;5142036;27;20459;-66
2023/04/18 01:00:08;;;;;;;15.80;14.90;;;8.40;99.90;;;;;;5152096;27;20511;-66
2023/04/18 01:02:36;;;;;;;15.57;14.57;;;8.40;99.90;;;;;;5144016;27;20885;-67
2023/04/18 01:05:03;;;;;;;13.77;13.17;;;8.40;99.90;;;;;;5142731;27;20505;-66
2023/04/18 01:07:32;;;;;;;15.50;14.60;;;8.30;99.90;;;;;;5146129;27;20455;-68
2023/04/18 01:09:59;;;;;;;14.93;14.27;;;8.20;99.90;;;;;;5139032;27;20455;-67
2023/04/18 01:12:27;;;;;;;14.90;13.87;;;8.20;99.90;;;;;;5136646;27;20807;-66
2023/04/18 01:14:54;;;;;;;14.20;13.50;;;8.10;99.90;;;;;;5148830;27;21040;-67
2023/04/18 01:17:23;;;;;;;15.17;13.97;;;8.10;99.90;;;;;;5150780;27;20446;-67
2023/04/18 01:19:50;;;;;;;14.37;13.47;;;8.10;99.90;;;;;;5161214;27;20452;-66
2023/04/18 01:22:19;;;;;;;16.10;15.20;;;8.00;99.90;;;;;;5137244;27;20459;-66
2023/04/18 01:24:47;;;;;;;14.80;13.77;;;8.00;99.90;;;;;;5151450;27;20486;-66
2023/04/18 01:27:16;;;;;;;16.17;15.10;;;8.00;99.90;;;;;;5141358;27;20861;-67
2023/04/18 01:29:43;;;;;;;15.73;14.83;;;7.90;99.90;;;;;;5144386;27;20451;-67
2023/04/18 01:32:09;;;;;;;14.50;13.73;;;7.90;99.90;;;;;;5148929;27;20954;-68
2023/04/18 01:34:36;;;;;;;15.07;14.10;;;7.80;99.90;;;;;;5149872;27;20515;-66
2023/04/18 01:37:03;;;;;;;15.73;14.93;;;7.80;99.90;;;;;;5146043;27;20873;-67
2023/04/18 01:39:31;;;;;;;14.73;13.60;;;7.80;99.90;;;;;;5143980;27;20853;-66
2023/04/18 01:42:00;;;;;;;13.63;13.00;;;7.70;99.90;;;;;;5145148;27;20466;-67
2023/04/18 01:44:27;;;;;;;15.07;14.27;;;7.70;99.90;;;;;;5142815;27;20518;-66
2023/04/18 01:46:54;;;;;;;13.23;12.73;;;7.70;99.90;;;;;;5151320;27;20515;-67
2023/04/18 01:49:21;;;;;;;14.77;13.87;;;7.60;99.90;;;;;;5146606;27;20469;-67
2023/04/18 01:51:48;;;;;;;14.83;14.10;;;7.50;99.90;;;;;;5148165;27;20464;-67
2023/04/18 01:54:15;;;;;;;13.97;13.17;;;7.50;99.90;;;;;;5146605;27;20934;-66
2023/04/18 01:56:41;;;;;;;14.60;13.47;;;7.50;99.90;;;;;;5133916;27;20847;-67
2023/04/18 01:59:11;;;;;;;14.20;13.60;;;7.50;99.90;;;;;;5144640;27;20861;-66
2023/04/18 02:01:38;;;;;;;12.80;12.30;;;7.40;99.90;;;;;;5140249;27;20891;-67
2023/04/18 02:04:04;;;;;;;12.23;11.73;;;7.30;99.90;;;;;;5142805;27;21260;-67
2023/04/18 02:06:32;;;;;;;11.70;11.30;;;7.30;99.90;;;;;;5145368;27;20856;-67
2023/04/18 02:08:59;;;;;;;11.67;11.27;;;7.30;99.90;;;;;;5146404;27;20448;-68
2023/04/18 02:11:25;;;;;;;13.90;13.20;;;7.20;99.90;;;;;;5130537;27;20458;-67
2023/04/18 02:13:52;;;;;;;11.83;11.40;;;7.20;99.90;;;;;;5147591;27;20691;-66
2023/04/18 02:16:21;;;;;;;11.63;11.13;;;7.20;99.90;;;;;;5141103;27;20459;-66
2023/04/18 02:18:51;;;;;;;12.37;11.80;;;7.10;99.90;;;;;;5153826;27;21040;-67
2023/04/18 02:21:17;;;;;;;11.90;11.30;;;7.10;99.90;;;;;;5150138;27;20791;-67
2023/04/18 02:23:44;;;;;;;12.60;12.00;;;7.10;99.90;;;;;;5140666;27;20502;-66
2023/04/18 02:26:11;;;;;;;14.80;13.90;;;7.00;99.90;;;;;;5139209;27;20474;-66
2023/04/18 02:28:38;;;;;;;11.80;11.30;;;7.00;99.90;;;;;;5139422;27;20973;-67
2023/04/18 02:31:06;;;;;;;13.93;13.23;;;7.00;99.90;;;;;;5135259;27;20456;-67
2023/04/18 02:33:34;;;;;;;11.40;10.90;;;6.90;99.90;;;;;;5138264;27;20466;-66
2023/04/18 02:36:01;;;;;;;12.77;12.17;;;6.90;99.90;;;;;;5145043;27;21017;-67
2023/04/18 02:38:28;;;;;;;13.87;12.80;;;6.80;99.90;;;;;;5149140;27;21242;-66
2023/04/18 02:40:54;;;;;;;11.50;11.10;;;6.90;99.90;;;;;;5149535;27;20633;-67
2023/04/18 02:43:21;;;;;;;11.03;10.50;;;6.80;99.90;;;;;;5143863;27;20481;-67
2023/04/18 02:45:48;;;;;;;12.17;11.47;;;6.70;99.90;;;;;;5135672;27;20476;-67
2023/04/18 02:48:14;;;;;;;11.20;10.70;;;6.60;99.90;;;;;;5138487;27;20468;-67
2023/04/18 02:50:42;;;;;;;13.70;12.40;;;6.60;99.90;;;;;;5136927;27;20527;-67
2023/04/18 02:53:09;;;;;;;12.43;11.70;;;6.60;99.90;;;;;;5142144;27;20459;-66
2023/04/18 02:55:36;;;;;;;13.50;12.67;;;6.60;99.90;;;;;;5148737;27;20867;-67
2023/04/18 02:58:03;;;;;;;11.73;11.20;;;6.60;99.90;;;;;;5149343;27;20469;-67
2023/04/18 03:00:30;;;;;;;11.67;11.10;;;6.60;99.90;;;;;;5138202;27;20518;-67
2023/04/18 03:02:57;;;;;;;10.83;10.33;;;6.60;99.90;;;;;;5134286;27;21044;-66
2023/04/18 03:05:23;;;;;;;10.37;9.97;;;6.50;99.90;;;;;;5142852;27;21027;-68
2023/04/18 03:07:52;;;;;;;10.50;10.10;;;6.50;99.90;;;;;;5148131;27;20952;-68
2023/04/18 03:10:19;;;;;;;11.50;10.90;;;6.50;99.90;;;;;;5149167;27;20490;-67
2023/04/18 03:12:46;;;;;;;10.07;9.60;;;6.40;99.90;;;;;;5144066;27;21005;-68
2023/04/18 03:15:13;;;;;;;11.27;10.87;;;6.40;99.90;;;;;;5142231;27;20559;-66
2023/04/18 03:17:40;;;;;;;11.23;10.63;;;6.30;99.90;;;;;;5139319;27;20462;-67
2023/04/18 03:20:09;;;;;;;12.47;11.90;;;6.30;99.90;;;;;;5147445;27;20997;-66
2023/04/18 03:22:35;;;;;;;9.50;9.20;;;6.30;99.90;;;;;;5137500;27;20507;-67
2023/04/18 03:25:05;;;;;;;10.37;9.87;;;6.30;99.90;;;;;;5138581;27;20528;-66
2023/04/18 03:27:33;;;;;;;11.00;10.50;;;6.30;99.90;;;;;;5148413;27;20464;-67
2023/04/18 03:29:59;;;;;;;10.07;9.67;;;6.30;99.90;;;;;;5134791;27;20462;-67
2023/04/18 03:32:27;;;;;;;13.43;11.13;;;6.20;99.90;;;;;;5133575;27;20527;-65
2023/04/18 03:34:53;;;;;;;10.40;9.83;;;6.20;99.90;;;;;;5147319;27;20462;-67
2023/04/18 03:37:21;;;;;;;10.63;10.13;;;6.20;99.90;;;;;;5143580;27;20514;-68
2023/04/18 03:39:48;;;;;;;11.27;10.57;;;6.20;99.90;;;;;;5134894;27;20453;-67
2023/04/18 03:42:16;;;;;;;11.20;10.50;;;6.20;99.90;;;;;;5136370;27;20472;-66
2023/04/18 03:44:43;;;;;;;10.23;9.63;;;6.10;99.90;;;;;;5141525;27;20935;-66
2023/04/18 03:47:11;;;;;;;10.40;9.73;;;6.10;99.90;;;;;;5148975;27;20679;-67
2023/04/18 03:49:37;;;;;;;12.23;11.33;;;6.10;99.90;;;;;;5146296;27;20972;-66
2023/04/18 03:52:05;;;;;;;7.50;7.20;;;6.10;99.90;;;;;;5144445;27;20461;-67
2023/04/18 03:54:31;;;;;;;10.27;9.67;;;6.00;99.90;;;;;;5131947;27;20492;-66
2023/04/18 03:56:58;;;;;;;14.00;8.70;;;6.00;99.90;;;;;;5148831;27;20869;-67
2023/04/18 03:59:26;;;;;;;8.80;8.40;;;6.00;99.90;;;;;;5149396;27;20462;-66
2023/04/18 04:01:53;;;;;;;9.00;8.60;;;6.00;99.90;;;;;;5134195;27;20537;-67
2023/04/18 04:04:20;;;;;;;8.57;8.27;;;5.90;99.90;;;;;;5140899;27;20485;-68
2023/04/18 04:06:47;;;;;;;11.70;10.90;;;5.90;99.90;;;;;;5135626;27;21291;-66
2023/04/18 04:09:14;;;;;;;9.57;9.07;;;5.90;99.90;;;;;;5141314;27;20463;-65
2023/04/18 04:11:42;;;;;;;8.10;7.80;;;5.90;99.90;;;;;;5148797;27;20789;-68
2023/04/18 04:14:09;;;;;;;12.13;11.47;;;5.80;99.90;;;;;;5143564;27;20450;-67
2023/04/18 04:16:38;;;;;;;9.77;9.20;;;5.80;99.90;;;;;;5137198;27;20535;-67
2023/04/18 04:19:05;;;;;;;9.20;8.80;;;5.80;99.90;;;;;;5146613;27;20934;-67
2023/04/18 04:21:32;;;;;;;8.63;8.13;;;5.80;99.90;;;;;;5137307;27;20460;-67
2023/04/18 04:24:00;;;;;;;7.50;7.20;;;5.70;99.90;;;;;;5145863;27;20478;-68
2023/04/18 04:26:27;;;;;;;8.47;8.17;;;5.80;99.90;;;;;;5143449;27;21027;-65
2023/04/18 04:28:54;;;;;;;8.77;8.30;;;5.70;99.90;;;;;;5151672;27;20490;-66
2023/04/18 04:31:20;;;;;;;8.80;8.43;;;5.70;99.90;;;;;;5153089;27;20562;-67
2023/04/18 04:33:49;;;;;;;7.30;7.07;;;5.70;99.90;;;;;;5141132;27;20518;-67
2023/04/18 04:36:18;;;;;;;9.70;9.23;;;5.70;99.90;;;;;;5144809;27;20984;-68
2023/04/18 04:38:44;;;;;;;8.60;8.10;;;5.60;99.90;;;;;;5153053;27;20542;-65
2023/04/18 04:41:11;;;;;;;8.77;8.23;;;5.70;99.90;;;;;;5146452;27;20472;-66
2023/04/18 04:43:41;;;;;;;7.60;7.30;;;5.70;99.90;;;;;;5142253;27;20459;-67
2023/04/18 04:46:12;;;;;;;8.63;8.10;;;5.70;99.90;;;;;;5141951;27;21043;-67
2023/04/18 04:48:41;;;;;;;9.60;9.00;;;5.60;99.90;;;;;;5142711;27;20460;-66
2023/04/18 04:51:10;;;;;;;10.90;9.70;;;5.70;99.90;;;;;;5145161;27;20559;-67
2023/04/18 04:53:37;;;;;;;7.17;6.97;;;5.70;99.90;;;;;;5142510;27;20468;-66
2023/04/18 04:56:04;;;;;;;7.83;7.50;;;5.60;99.90;;;;;;5152247;27;20567;-67
2023/04/18 04:58:31;;;;;;;10.13;9.53;;;5.70;99.90;;;;;;5137399;27;20462;-66
2023/04/18 05:00:58;;;;;;;8.20;7.80;;;5.70;99.90;;;;;;5144436;27;20508;-66
2023/04/18 05:03:25;;;;;;;8.97;8.33;;;5.70;99.90;;;;;;5142146;27;20551;-66
2023/04/18 05:05:51;;;;;;;7.50;7.13;;;5.70;99.90;;;;;;5147848;27;20563;-67
2023/04/18 05:08:20;;;;;;;6.37;6.17;;;5.60;99.90;;;;;;5148427;27;20463;-66
2023/04/18 05:10:48;;;;;;;8.43;8.03;;;5.60;99.90;;;;;;5144768;27;20779;-67
2023/04/18 05:13:15;;;;;;;8.90;8.33;;;5.70;99.90;;;;;;5139139;27;20465;-67
2023/04/18 05:15:41;;;;;;;7.93;7.53;;;5.70;99.90;;;;;;5144827;27;20973;-68
2023/04/18 05:18:08;;;;;;;14.77;11.17;;;5.60;99.90;;;;;;5145178;27;20455;-65
2023/04/18 05:20:35;;;;;;;8.50;8.00;;;5.70;99.90;;;;;;5148129;27;20882;-65
2023/04/18 05:23:02;;;;;;;7.13;6.73;;;5.70;99.90;;;;;;5140681;27;20462;-66
2023/04/18 05:25:32;;;;;;;6.90;6.60;;;5.60;99.90;;;;;;5144034;27;20915;-66
2023/04/18 05:28:00;;;;;;;8.23;7.40;;;5.60;99.90;;;;;;5143160;27;20447;-68
2023/04/18 05:30:27;;;;;;;9.13;7.70;;;5.60;99.90;;;;;;5131692;27;21245;-66
2023/04/18 05:32:53;;;;;;;6.87;6.67;;;5.70;99.90;;;;;;5142524;27;20458;-67
2023/04/18 05:35:20;;;;;;;7.50;7.17;;;5.70;99.90;;;;;;5148146;27;20809;-67
2023/04/18 05:37:47;;;;;;;6.87;6.67;;;5.70;99.90;;;;;;5149949;27;20515;-66
2023/04/18 05:40:14;;;;;;;7.70;7.40;;;5.70;99.90;;;;;;5147355;27;20451;-66
2023/04/18 05:42:42;;;;;;;7.17;6.97;;;5.70;99.90;;;;;;5143867;27;20468;-68
2023/04/18 05:45:09;;;;;;;7.97;7.67;;;5.80;99.90;;;;;;5142171;27;20835;-67
2023/04/18 05:47:37;;;;;;;6.70;6.50;;;5.80;99.90;;;;;;5134655;27;20475;-67
2023/04/18 05:50:04;;;;;;;8.60;8.30;;;5.80;99.90;;;;;;5149441;27;20512;-67
2023/04/18 05:52:32;;;;;;;8.10;7.80;;;6.00;99.90;;;;;;5138776;27;20465;-66
2023/04/18 05:54:58;;;;;;;8.13;7.83;;;6.10;99.90;;;;;;5138537;27;20973;-66
2023/04/18 05:57:25;;;;;;;7.30;7.10;;;6.20;99.90;;;;;;5135105;27;20467;-68
2023/04/18 05:59:54;;;;;;;7.50;7.30;;;6.40;99.90;;;;;;5140259;27;20453;-67
2023/04/18 06:02:21;;;;;;;7.27;7.07;;;6.50;99.90;;;;;;5139751;27;20595;-67
2023/04/18 06:04:48;;;;;;;7.33;7.13;;;6.70;99.90;;;;;;5137012;27;20873;-68
2023/04/18 06:07:15;;;;;;;9.30;8.90;;;6.90;99.90;;;;;;5136839;27;20481;-67
2023/04/18 06:09:42;;;;;;;9.03;8.63;;;7.10;99.90;;;;;;5135747;27;21000;-66
2023/04/18 06:12:09;;;;;;;9.30;8.90;;;7.30;99.90;;;;;;5145664;27;20534;-68
2023/04/18 06:14:36;;;;;;;10.03;9.60;;;7.30;99.90;;;;;;5134695;27;20931;-66
2023/04/18 06:17:07;;;;;;;9.27;8.97;;;7.50;99.90;;;;;;5139156;27;20832;-66
2023/04/18 06:19:34;;;;;;;11.33;10.63;;;7.50;99.90;;;;;;5140137;27;20458;-67
2023/04/18 06:22:01;;;;;;;10.50;10.10;;;7.50;99.90;;;;;;5137013;27;20544;-66
2023/04/18 06:24:28;;;;;;;12.30;11.60;;;7.70;99.90;;;;;;5131913;27;20461;-66
2023/04/18 06:26:56;;;;;;;12.63;11.93;;;7.90;99.90;;;;;;5142432;27;20508;-67
2023/04/18 06:29:23;;;;;;;12.40;11.87;;;7.90;99.90;;;;;;5150638;27;20462;-66
2023/04/18 06:31:50;;;;;;;13.03;12.50;;;8.00;99.90;;;;;;5150122;27;20466;-66
2023/04/18 06:34:19;;;;;;;12.60;12.10;;;8.10;99.90;;;;;;5134980;27;20531;-66
2023/04/18 06:36:46;;;;;;;11.90;11.40;;;8.20;99.90;;;;;;5126808;27;20460;-66
2023/04/18 06:39:13;;;;;;;11.67;11.20;;;8.20;99.90;;;;;;5128700;27;20468;-66
2023/04/18 06:41:40;;;;;;;11.47;10.97;;;8.20;99.90;;;;;;5135935;27;20519;-67
2023/04/18 06:44:07;;;;;;;11.40;10.90;;;8.20;99.90;;;;;;5134821;27;20463;-67
2023/04/18 06:46:34;;;;;;;11.70;11.20;;;8.20;99.90;;;;;;5136499;27;20550;-66
2023/04/18 06:49:00;;;;;;;14.57;13.40;;;8.20;99.90;;;;;;5144836;27;20452;-67
2023/04/18 06:51:30;;;;;;;14.20;13.50;;;8.20;99.90;;;;;;5140562;27;20515;-67
2023/04/18 06:53:57;;;;;;;14.87;14.07;;;8.30;99.90;;;;;;5132492;27;21049;-67
2023/04/18 06:56:23;;;;;;;13.90;13.10;;;8.30;99.90;;;;;;5145985;27;20470;-68
2023/04/18 06:58:51;;;;;;;12.57;12.07;;;8.50;99.90;;;;;;5136951;27;20451;-66
2023/04/18 07:01:18;;;;;;;15.10;14.00;;;8.60;99.90;;;;;;5147928;27;20853;-67
2023/04/18 07:03:45;;;;;;;12.43;11.90;;;8.80;99.90;;;;;;5143635;27;21037;-67
2023/04/18 07:06:12;;;;;;;20.90;18.70;;;9.00;99.90;;;;;;5142463;27;20495;-66
2023/04/18 07:08:41;;;;;;;17.97;16.83;;;9.00;99.90;;;;;;5138266;27;20482;-67
2023/04/18 07:11:08;;;;;;;14.30;13.60;;;9.20;99.90;;;;;;5144804;27;20546;-66
2023/04/18 07:13:35;;;;;;;15.10;14.33;;;9.50;99.90;;;;;;5141754;27;20447;-67
2023/04/18 07:16:02;;;;;;;14.20;13.50;;;9.60;99.90;;;;;;5133018;27;20529;-67
2023/04/18 07:18:29;;;;;;;15.20;14.43;;;9.80;99.90;;;;;;5136097;27;20467;-66
2023/04/18 07:20:56;;;;;;;17.37;15.90;;;10.10;99.90;;;;;;5142993;27;20802;-67
2023/04/18 07:23:23;;;;;;;18.13;16.60;;;10.30;99.90;;;;;;5132086;27;20456;-66
2023/04/18 07:25:52;;;;;;;17.40;16.10;;;10.40;99.90;;;;;;5144695;27;20479;-67
2023/04/18 07:28:19;;;;;;;20.37;18.73;;;10.50;99.90;;;;;;5138156;27;20496;-67
2023/04/18 07:30:47;;;;;;;18.63;17.10;;;10.50;99.90;;;;;;5143521;27;20464;-67
2023/04/18 07:33:14;;;;;;;17.83;16.47;;;10.50;99.90;;;;;;5137118;27;20555;-67
2023/04/18 07:35:44;;;;;;;16.23;15.13;;;10.50;99.90;;;;;;5135607;27;20518;-67
2023/04/18 07:38:12;;;;;;;20.83;19.17;;;10.80;99.90;;;;;;5134926;27;20455;-67
2023/04/18 07:40:39;;;;;;;17.50;16.37;;;10.80;99.90;;;;;;5148442;27;20962;-67
2023/04/18 07:43:08;;;;;;;17.20;16.30;;;10.70;99.90;;;;;;5145826;27;20452;-67
2023/04/18 07:45:37;;;;;;;18.07;17.07;;;10.40;99.90;;;;;;5139295;27;20582;-67
2023/04/18 07:48:04;;;;;;;18.93;17.53;;;10.40;99.90;;;;;;5133833;27;20458;-67
2023/04/18 07:50:31;;;;;;;19.07;17.20;;;10.60;99.90;;;;;;5129550;27;20467;-67
2023/04/18 07:52:58;;;;;;;19.27;18.13;;;10.60;99.90;;;;;;5140088;27;20464;-67
2023/04/18 07:55:25;;;;;;;18.67;16.97;;;10.60;99.90;;;;;;5144624;27;20487;-67
2023/04/18 07:57:52;;;;;;;17.13;15.87;;;10.70;99.90;;;;;;5136739;27;20460;-66
2023/04/18 08:00:21;;;;;;;19.10;17.97;;;10.80;99.90;;;;;;5141006;27;20967;-67
2023/04/18 08:02:47;;;;;;;16.23;15.37;;;10.90;99.90;;;;;;5143137;27;20463;-66
2023/04/18 08:05:15;;;;;;;17.00;16.00;;;10.80;99.90;;;;;;5130266;27;20475;-68
2023/04/18 08:07:42;;;;;;;17.57;16.47;;;10.80;99.90;;;;;;5136651;27;20806;-67
2023/04/18 08:10:10;;;;;;;16.63;15.83;;;11.00;99.90;;;;;;5148568;27;20447;-67
2023/04/18 08:12:37;;;;;;;18.53;17.43;;;11.30;99.90;;;;;;5131733;27;21274;-68
2023/04/18 08:15:05;;;;;;;19.73;18.20;;;11.60;99.90;;;;;;5144542;27;20460;-67
2023/04/18 08:17:33;;;;;;;16.50;15.60;;;11.60;99.90;;;;;;5136419;27;20455;-67
2023/04/18 08:20:05;;;;;;;17.87;16.77;;;11.80;99.90;;;;;;5131353;27;20459;-67
2023/04/18 08:22:32;;;;;;;17.97;16.90;;;11.70;99.90;;;;;;5136984;27;20455;-67
2023/04/18 08:25:00;;;;;;;15.80;15.10;;;11.70;99.90;;;;;;5133809;27;20464;-67
2023/04/18 08:27:27;;;;;;;18.30;17.30;;;11.80;99.90;;;;;;5142189;27;20455;-68
2023/04/18 08:29:55;;;;;;;16.50;15.60;;;12.20;99.90;;;;;;5144051;27;20451;-67
2023/04/18 08:32:22;;;;;;;17.70;16.77;;;12.20;99.90;;;;;;5137485;27;20838;-68
2023/04/18 08:34:50;;;;;;;17.47;16.40;;;12.20;99.90;;;;;;5130993;27;20463;-67
2023/04/18 08:37:17;;;;;;;18.30;17.30;;;12.10;99.90;;;;;;5129520;27;20461;-67
2023/04/18 08:39:44;;;;;;;17.37;16.50;;;12.00;99.90;;;;;;5138293;27;20448;-67
2023/04/18 08:42:14;;;;;;;17.97;17.07;;;12.10;99.90;;;;;;5139694;27;20463;-68
2023/04/18 08:44:42;;;;;;;18.17;17.17;;;12.10;99.90;;;;;;5134721;27;20479;-67
2023/04/18 08:47:11;;;;;;;16.70;15.90;;;12.40;99.90;;;;;;5137345;27;20492;-67
2023/04/18 08:49:38;;;;;;;16.00;15.03;;;12.40;99.90;;;;;;5147208;27;20447;-67
2023/04/18 08:52:11;;;;;;;17.73;16.60;;;12.60;99.90;;;;;;5136949;27;20455;-67
2023/04/18 08:54:40;;;;;;;16.97;15.87;;;12.30;99.90;;;;;;5125966;27;20577;-67
2023/04/18 08:57:09;;;;;;;18.27;17.17;;;12.60;99.90;;;;;;5132744;27;20498;-67
2023/04/18 08:59:36;;;;;;;17.83;16.77;;;12.60;99.90;;;;;;5133891;27;20448;-68
2023/04/18 09:02:07;;;;;;;19.23;17.93;;;12.50;99.90;;;;;;5131659;27;20459;-67
2023/04/18 09:04:36;;;;;;;16.00;15.20;;;12.50;99.90;;;;;;5132241;27;20491;-67
2023/04/18 09:07:04;;;;;;;17.70;16.60;;;12.20;99.90;;;;;;5137791;27;20483;-66
2023/04/18 09:09:47;;;;;;;14.93;14.33;;;12.30;99.90;;;;;;5128254;27;20938;-67
2023/04/18 09:12:17;;;;;;;17.50;16.60;;;12.80;99.90;;;;;;5134871;27;20451;-68
2023/04/18 09:14:45;;;;;;;17.80;16.90;;;12.90;99.90;;;;;;5136575;27;20455;-67
2023/04/18 09:17:15;;;;;;;16.77;15.97;;;13.20;99.90;;;;;;5134543;27;20456;-68
2023/04/18 09:19:53;;;;;;;17.80;16.80;;;13.10;99.90;;;;;;5143968;27;20448;-67
2023/04/18 09:22:20;;;;;;;16.23;15.33;;;13.40;99.90;;;;;;5134828;27;20884;-67
2023/04/18 09:24:56;;;;;;;17.30;16.50;;;13.40;99.90;;;;;;5132289;27;20566;-67
2023/04/18 09:27:23;;;;;;;18.10;17.00;;;13.60;99.90;;;;;;5134145;27;20491;-67
2023/04/18 09:29:53;;;;;;;19.30;18.20;;;13.40;99.90;;;;;;5142015;27;21069;-67
2023/04/18 09:32:23;;;;;;;16.87;16.07;;;13.20;99.90;;;;;;5138624;27;20463;-68
2023/04/18 09:34:53;;;;;;;16.80;16.00;;;13.30;99.90;;;;;;5135466;27;20448;-68
2023/04/18 09:37:20;;;;;;;15.13;14.50;;;13.20;99.90;;;;;;5148197;27;20633;-68
2023/04/18 09:39:47;;;;;;;17.17;16.23;;;13.40;99.90;;;;;;5137064;27;21313;-68
2023/04/18 09:42:17;;;;;;;18.23;17.23;;;13.20;99.90;;;;;;5135483;27;20449;-66
2023/04/18 09:45:03;;;;;;;19.67;18.43;;;13.00;99.90;;;;;;5143530;27;20471;-67
2023/04/18 09:47:31;;;;;;;16.53;15.80;;;12.60;99.90;;;;;;5134505;27;20523;-68
2023/04/18 09:49:58;;;;;;;20.20;19.00;;;12.40;99.90;;;;;;5146149;27;20451;-68
2023/04/18 09:52:26;;;;;;;18.37;17.27;;;12.60;99.90;;;;;;5136107;27;20466;-67
2023/04/18 09:54:58;;;;;;;17.27;16.43;;;12.40;99.90;;;;;;5146389;27;20475;-67
2023/04/18 09:57:29;;;;;;;17.00;16.10;;;12.60;99.90;;;;;;5146120;27;20556;-67
2023/04/18 10:00:04;;;;;;;16.80;15.90;;;12.50;99.90;;;;;;5141078;27;20456;-68
2023/04/18 10:02:40;;;;;;;15.50;14.80;;;12.90;99.90;;;;;;5137228;27;20536;-68
2023/04/18 10:05:10;;;;;;;17.40;16.23;;;13.00;99.90;;;;;;5141271;27;20535;-67
2023/04/18 10:07:37;;;;;;;16.83;15.93;;;13.20;99.90;;;;;;5137242;27;20498;-68
2023/04/18 10:10:05;;;;;;;17.03;16.13;;;13.50;99.90;;;;;;5138986;27;20460;-68
2023/04/18 10:12:33;;;;;;;18.50;16.87;;;13.50;99.90;;;;;;5134707;27;20451;-68
2023/04/18 10:15:01;;;;;;;19.30;18.10;;;13.60;99.90;;;;;;5146734;27;20520;-67
2023/04/18 10:17:28;;;;;;;18.87;17.70;;;13.30;99.90;;;;;;5136116;27;20486;-67
2023/04/18 10:20:06;;;;;;;18.70;17.70;;;13.10;99.90;;;;;;5151379;27;20459;-67
2023/04/18 10:22:34;;;;;;;16.10;15.40;;;12.90;99.90;;;;;;5139835;27;20455;-67
2023/04/18 10:25:01;;;;;;;17.23;16.33;;;13.50;99.90;;;;;;5136811;27;20456;-67
2023/04/18 10:28:00;;;;;;;15.67;14.97;;;13.50;99.90;;;;;;5148530;27;20483;-68
2023/04/18 10:30:51;;;;;;;18.73;17.47;;;13.80;99.90;;;;;;5137363;27;20533;-67
2023/04/18 10:33:27;;;;;;;18.43;17.20;;;13.90;99.90;;;;;;5141200;27;20552;-67
2023/04/18 10:35:59;;;;;;;16.87;16.07;;;13.90;99.90;;;;;;5136045;27;20450;-67
2023/04/18 10:38:26;;;;;;;17.17;16.27;;;14.10;99.90;;;;;;5140968;27;20509;-67
2023/04/18 10:40:53;;;;;;;15.97;15.17;;;14.40;99.90;;;;;;5133597;27;20468;-67
2023/04/18 10:43:21;;;;;;;18.70;17.47;;;15.00;99.90;;;;;;5146076;27;20541;-68
2023/04/18 10:46:10;;;;;;;20.17;18.77;;;15.10;99.90;;;;;;5138093;27;20472;-68
2023/04/18 10:48:38;;;;;;;18.70;17.50;;;14.90;99.90;;;;;;5141766;27;20461;-67
2023/04/18 10:51:15;;;;;;;16.60;15.70;;;15.00;99.90;;;;;;5136668;27;20452;-67
2023/04/18 10:53:49;;;;;;;19.07;17.80;;;14.20;99.90;;;;;;5136004;27;20891;-67
2023/04/18 10:56:16;;;;;;;15.90;15.20;;;14.40;99.90;;;;;;5137241;27;20964;-68
2023/04/18 10:58:50;;;;;;;16.53;15.70;;;15.00;99.90;;;;;;5138622;27;20512;-68
2023/04/18 11:01:25;;;;;;;17.30;16.20;;;15.60;99.90;;;;;;5143088;27;20455;-67
2023/04/18 11:03:52;;;;;;;19.23;18.20;;;15.50;99.90;;;;;;5134839;27;20755;-68
2023/04/18 11:06:19;;;;;;;19.13;17.97;;;15.80;99.90;;;;;;5146148;27;20924;-67
2023/04/18 11:08:46;;;;;;;18.40;17.37;;;15.90;99.90;;;;;;5132998;27;20456;-68
2023/04/18 11:11:13;;;;;;;18.03;16.73;;;15.70;99.90;;;;;;5141546;27;20512;-67
2023/04/18 11:13:55;;;;;;;17.73;16.63;;;15.40;99.90;;;;;;5132362;27;20529;-67
2023/04/18 11:16:27;;;;;;;20.97;19.10;;;15.80;99.90;;;;;;5142189;27;20461;-68
2023/04/18 11:18:54;;;;;;;19.87;18.60;;;15.70;99.90;;;;;;5137528;27;20455;-67
2023/04/18 11:21:20;;;;;;;19.07;17.77;;;15.20;99.90;;;;;;5134948;27;20528;-68
2023/04/18 11:23:48;;;;;;;18.20;17.20;;;15.10;99.90;;;;;;5135028;27;20467;-68
2023/04/18 11:26:16;;;;;;;16.87;16.03;;;15.30;99.90;;;;;;5137246;27;20471;-67
2023/04/18 11:28:43;;;;;;;19.70;18.47;;;15.00;99.90;;;;;;5136370;27;20819;-68
2023/04/18 11:31:16;;;;;;;17.93;16.83;;;15.30;99.90;;;;;;5136888;27;20547;-68
2023/04/18 11:33:47;;;;;;;17.53;16.50;;;14.90;99.90;;;;;;5134662;27;20466;-67
2023/04/18 11:36:13;;;;;;;22.00;19.07;;;14.90;99.90;;;;;;5137536;27;20938;-67
2023/04/18 11:38:41;;;;;;;21.97;20.20;;;14.50;99.90;;;;;;5136256;27;20475;-68
2023/04/18 11:41:14;;;;;;;17.93;17.00;;;14.60;99.90;;;;;;5142923;27;20456;-67
2023/04/18 11:43:43;;;;;;;17.27;16.27;;;14.70;99.90;;;;;;5135297;27;20512;-67
2023/04/18 11:46:13;;;;;;;18.73;17.43;;;14.80;99.90;;;;;;5134111;27;20860;-67
2023/04/18 11:48:41;;;;;;;19.23;17.90;;;15.20;99.90;;;;;;5141733;27;20657;-68
2023/04/18 11:51:29;;;;;;;20.57;19.17;;;16.30;99.90;;;;;;5145717;27;20933;-68
2023/04/18 11:53:56;;;;;;;19.43;18.23;;;15.80;99.90;;;;;;5144985;27;20528;-67
2023/04/18 11:56:23;;;;;;;18.13;17.13;;;15.00;99.90;;;;;;5136037;27;20464;-67
2023/04/18 11:58:49;;;;;;;17.93;16.87;;;15.10;99.90;;;;;;5140682;27;20462;-68
2023/04/18 12:01:22;;;;;;;18.73;17.53;;;15.40;99.90;;;;;;5131282;27;20463;-68
2023/04/18 12:04:02;;;;;;;19.37;18.17;;;15.60;99.90;;;;;;5136024;27;20455;-68
2023/04/18 12:06:47;;;;;;;15.70;14.90;;;15.70;99.90;;;;;;5145531;27;20543;-68
2023/04/18 12:09:15;;;;;;;16.93;15.83;;;15.40;99.90;;;;;;5137806;27;20519;-67
2023/04/18 12:11:42;;;;;;;18.53;17.30;;;15.20;99.90;;;;;;5142088;27;20589;-69
2023/04/18 12:14:20;;;;;;;19.77;18.50;;;15.10;99.90;;;;;;5131612;27;20995;-68
2023/04/18 12:16:49;;;;;;;19.90;18.60;;;14.80;99.90;;;;;;5131117;27;20570;-68
2023/04/18 12:19:19;;;;;;;17.23;16.23;;;15.10;99.90;;;;;;5143301;27;20462;-68
2023/04/18 12:21:56;;;;;;;15.30;14.50;;;15.20;99.90;;;;;;5144047;27;20543;-68
2023/04/18 12:24:24;;;;;;;16.50;15.50;;;15.90;99.90;;;;;;5138798;27;20454;-69
2023/04/18 12:26:51;;;;;;;15.30;14.60;;;16.30;99.90;;;;;;5127685;27;20483;-67
2023/04/18 12:29:18;;;;;;;18.43;17.43;;;17.10;99.90;;;;;;5134773;27;20472;-68
2023/04/18 12:31:45;;;;;;;22.80;20.90;;;18.10;99.90;;;;;;5138438;27;20443;-68
2023/04/18 12:34:13;;;;;;;16.70;15.90;;;18.20;99.90;;;;;;5146794;27;20463;-68
2023/04/18 12:36:40;;;;;;;17.63;16.70;;;18.70;99.90;;;;;;5144524;27;20512;-68
2023/04/18 12:39:07;;;;;;;17.13;16.33;;;19.20;99.90;;;;;;5141321;27;21061;-68
2023/04/18 12:41:35;;;;;;;20.03;18.63;;;19.80;99.90;;;;;;5136823;27;20568;-69